TimeMST,TemperatureF,Dew PointF,Humidity,Sea Level PressureIn,VisibilityMPH,Wind Direction,Wind SpeedMPH,Gust SpeedMPH,PrecipitationIn,Events,Conditions,WindDirDegrees,DateUTC
12:15 AM,32.0,23.0,69,30.18,10.0,NW,10.4,-,N/A,,Clear,320,2013-11-29 07:15:00
12:35 AM,32.0,23.0,69,30.18,10.0,NW,8.1,-,N/A,,Clear,310,2013-11-29 07:35:00
12:55 AM,32.0,23.0,69,30.18,10.0,WNW,9.2,-,N/A,,Clear,300,2013-11-29 07:55:00
1:15 AM,32.0,23.0,69,30.18,10.0,NW,9.2,-,N/A,,Clear,310,2013-11-29 08:15:00
1:35 AM,32.0,23.0,69,30.19,10.0,NW,9.2,-,N/A,,Clear,310,2013-11-29 08:35:00
1:55 AM,32.0,23.0,69,30.18,10.0,NW,9.2,-,N/A,,Clear,310,2013-11-29 08:55:00
2:15 AM,30.2,23.0,75,30.19,10.0,NW,9.2,-,N/A,,Clear,310,2013-11-29 09:15:00
2:35 AM,30.2,23.0,75,30.20,10.0,NW,9.2,-,N/A,,Clear,310,2013-11-29 09:35:00
2:55 AM,30.2,23.0,75,30.21,10.0,NW,9.2,-,N/A,,Clear,320,2013-11-29 09:55:00
3:15 AM,30.2,23.0,75,30.21,10.0,NW,9.2,-,N/A,,Clear,310,2013-11-29 10:15:00
3:35 AM,30.2,23.0,75,30.20,10.0,NW,9.2,-,N/A,,Clear,310,2013-11-29 10:35:00
3:55 AM,30.2,23.0,75,30.20,10.0,NW,8.1,-,N/A,,Clear,310,2013-11-29 10:55:00
4:15 AM,30.2,23.0,75,30.20,10.0,NW,9.2,-,N/A,,Clear,310,2013-11-29 11:15:00
4:35 AM,30.2,23.0,75,30.21,10.0,NW,9.2,-,N/A,,Clear,310,2013-11-29 11:35:00
4:55 AM,30.2,23.0,75,30.21,10.0,NW,9.2,-,N/A,,Clear,310,2013-11-29 11:55:00
5:15 AM,30.2,23.0,75,30.21,10.0,NW,8.1,-,N/A,,Clear,310,2013-11-29 12:15:00
5:35 AM,30.2,23.0,75,30.21,10.0,NW,9.2,-,N/A,,Clear,310,2013-11-29 12:35:00
5:55 AM,28.4,23.0,80,30.22,10.0,NW,6.9,-,N/A,,Clear,320,2013-11-29 12:55:00
6:47 AM,28.4,21.2,74,30.23,10.0,WNW,8.1,-,N/A,,Clear,300,2013-11-29 13:47:00
7:47 AM,28.4,21.2,74,30.24,10.0,WNW,8.1,-,N/A,,Clear,290,2013-11-29 14:47:00
8:48 AM,28.4,21.2,74,30.26,10.0,WNW,6.9,-,N/A,,Clear,290,2013-11-29 15:48:00
9:47 AM,30.2,21.2,69,30.27,10.0,WNW,6.9,-,N/A,,Clear,290,2013-11-29 16:47:00
10:47 AM,35.6,23.0,60,30.27,10.0,West,4.6,-,N/A,,Clear,280,2013-11-29 17:47:00
11:50 AM,42.8,24.8,49,30.26,10.0,Calm,Calm,-,N/A,,Clear,0,2013-11-29 18:50:00
1:47 PM,46.4,26.6,46,30.23,10.0,ESE,11.5,-,N/A,,Partly Cloudy,120,2013-11-29 20:47:00
2:47 PM,46.4,26.6,46,30.21,10.0,ESE,10.4,-,N/A,,Partly Cloudy,120,2013-11-29 21:47:00
3:55 PM,44.6,26.6,49,30.22,10.0,SE,9.2,-,N/A,,Clear,130,2013-11-29 22:55:00
4:47 PM,39.2,26.6,61,30.22,10.0,SE,5.8,-,N/A,,Partly Cloudy,130,2013-11-29 23:47:00
5:50 PM,35.6,26.6,70,30.22,10.0,Calm,Calm,-,N/A,,Clear,0,2013-11-30 00:50:00
6:47 PM,33.8,26.6,75,30.23,10.0,NW,5.8,-,N/A,,Clear,310,2013-11-30 01:47:00
7:47 PM,33.8,26.6,75,30.23,10.0,NW,8.1,-,N/A,,Clear,310,2013-11-30 02:47:00
8:47 PM,32.0,24.8,75,30.23,10.0,NW,8.1,-,N/A,,Clear,310,2013-11-30 03:47:00
10:15 PM,32.0,26.6,80,30.25,10.0,NW,4.6,-,N/A,,Clear,310,2013-11-30 05:15:00
10:35 PM,32.0,26.6,80,30.25,10.0,WNW,8.1,-,N/A,,Clear,300,2013-11-30 05:35:00
10:47 PM,32.0,24.8,75,30.25,10.0,NW,5.8,-,N/A,,Clear,310,2013-11-30 05:47:00
10:55 PM,32.0,26.6,80,30.26,10.0,WNW,8.1,-,N/A,,Clear,300,2013-11-30 05:55:00
11:15 PM,32.0,26.6,80,30.26,10.0,NW,5.8,-,N/A,,Clear,310,2013-11-30 06:15:00
11:35 PM,32.0,26.6,80,30.25,10.0,NW,5.8,-,N/A,,Scattered Clouds,320,2013-11-30 06:35:00
11:55 PM,32.0,26.6,80,30.25,10.0,NW,6.9,-,N/A,,Clear,310,2013-11-30 06:55:00